Aviation Digital Data Service (ADDS)

Output produced by METARs form (0637 UTC 30 March 2017)
found at http://aviationweather.gov/adds/metars/
 
KHLG 300520Z 3006/3106 07008KT P6SM BKN150 
     FM301600 10010KT P6SM VCSH BKN060 
     FM302100 12012KT P6SM BKN100 
     FM310300 14012KT P6SM VCSH OVC050 WS020/20045KT